createdAt,value
2024-05-09T00:00:15.429Z,55.35
2024-05-09T00:01:09.636Z,55.48
2024-05-09T00:02:08.602Z,55.74
2024-05-09T00:03:10.107Z,55.68
2024-05-09T00:04:08.625Z,56.89
2024-05-09T00:05:08.702Z,56.14
2024-05-09T00:06:08.625Z,55.85
2024-05-09T00:07:08.554Z,55.90
2024-05-09T00:08:08.591Z,54.85
2024-05-09T00:09:08.571Z,54.76
2024-05-09T00:10:14.638Z,54.15
2024-05-09T00:11:09.616Z,54.37
2024-05-09T00:12:08.812Z,54.80
2024-05-09T00:13:08.921Z,55.18
2024-05-09T00:14:08.599Z,54.89
2024-05-09T00:15:08.569Z,54.47
2024-05-09T00:16:08.571Z,53.57
2024-05-09T00:17:08.644Z,54.33
2024-05-09T00:18:09.013Z,53.79
2024-05-09T00:19:08.677Z,53.03
2024-05-09T00:20:14.458Z,52.79
2024-05-09T00:21:09.828Z,52.93
2024-05-09T00:22:08.579Z,53.11
2024-05-09T00:23:09.006Z,53.15
2024-05-09T00:24:08.587Z,53.46
2024-05-09T00:25:08.637Z,53.28
2024-05-09T00:26:08.666Z,52.78
2024-05-09T00:27:10.069Z,52.27
2024-05-09T00:28:08.629Z,53.74
2024-05-09T00:29:08.660Z,52.69
2024-05-09T00:30:14.282Z,51.76
2024-05-09T00:31:09.631Z,52.02
2024-05-09T00:32:08.744Z,52.55
2024-05-09T00:33:10.241Z,52.80
2024-05-09T00:34:09.019Z,53.45
2024-05-09T00:35:08.998Z,53.20
2024-05-09T00:36:09.007Z,53.16
2024-05-09T00:37:08.965Z,52.81
2024-05-09T00:38:09.056Z,51.30
2024-05-09T00:39:09.051Z,51.08
2024-05-09T00:40:18.215Z,50.01
2024-05-09T00:41:10.105Z,50.17
2024-05-09T00:42:09.074Z,50.42
2024-05-09T00:43:09.187Z,50.42
2024-05-09T00:44:09.196Z,50.67
2024-05-09T00:45:09.073Z,50.00
2024-05-09T00:46:09.096Z,50.50
2024-05-09T00:47:09.178Z,50.92
2024-05-09T00:48:10.512Z,50.56
2024-05-09T00:49:09.144Z,50.51
2024-05-09T00:50:15.457Z,50.25
2024-05-09T00:51:10.364Z,50.40
2024-05-09T00:52:09.130Z,50.67
2024-05-09T00:53:09.167Z,50.79
2024-05-09T00:54:09.119Z,51.35
2024-05-09T00:55:09.159Z,50.96
2024-05-09T00:56:09.195Z,50.96
2024-05-09T00:57:09.149Z,51.26
2024-05-09T00:58:09.207Z,51.07
2024-05-09T00:59:09.195Z,50.75
2024-05-09T01:00:22.162Z,50.36
2024-05-09T01:01:10.207Z,50.46
2024-05-09T01:02:09.312Z,50.79
2024-05-09T01:03:11.026Z,50.63
2024-05-09T01:04:09.475Z,50.47
2024-05-09T01:05:09.281Z,50.70
2024-05-09T01:06:09.167Z,51.02
2024-05-09T01:07:09.174Z,51.10
2024-05-09T01:08:09.639Z,51.08
2024-05-09T01:09:09.168Z,51.14
2024-05-09T01:10:14.026Z,50.21
2024-05-09T01:11:10.271Z,50.42
2024-05-09T01:12:09.661Z,50.69
2024-05-09T01:13:09.191Z,50.85
2024-05-09T01:14:09.240Z,50.62
2024-05-09T01:15:09.175Z,50.39
2024-05-09T01:16:09.306Z,50.91
2024-05-09T01:17:09.260Z,50.46
2024-05-09T01:18:09.859Z,50.38
2024-05-09T01:19:09.281Z,50.51
2024-05-09T01:20:12.891Z,50.00
2024-05-09T01:21:10.415Z,50.14
2024-05-09T01:22:09.229Z,50.26
2024-05-09T01:23:09.999Z,50.49
2024-05-09T01:24:09.276Z,50.77
2024-05-09T01:25:09.239Z,50.81
2024-05-09T01:26:09.286Z,50.25
2024-05-09T01:27:09.284Z,50.97
2024-05-09T01:28:09.235Z,50.67
2024-05-09T01:29:09.296Z,51.13
2024-05-09T01:30:11.992Z,51.00
2024-05-09T01:31:10.242Z,51.13
2024-05-09T01:32:09.381Z,51.26
2024-05-09T01:33:10.962Z,51.22
2024-05-09T01:34:09.275Z,51.96
2024-05-09T01:35:09.398Z,51.57
2024-05-09T01:36:09.264Z,50.75
2024-05-09T01:37:09.245Z,50.12
2024-05-09T01:38:09.312Z,50.44
2024-05-09T01:39:09.265Z,50.05
2024-05-09T01:40:14.807Z,50.26
2024-05-09T01:41:10.276Z,50.52
2024-05-09T01:42:09.277Z,50.98
2024-05-09T01:43:10.549Z,51.32
2024-05-09T01:44:09.303Z,51.76
2024-05-09T01:45:09.335Z,52.11
2024-05-09T01:46:09.282Z,51.40
2024-05-09T01:47:09.500Z,50.88
2024-05-09T01:48:09.772Z,50.45
2024-05-09T01:49:09.397Z,50.75
2024-05-09T01:50:11.035Z,50.84
2024-05-09T01:51:09.396Z,51.52
2024-05-09T01:52:09.404Z,50.56
2024-05-09T01:53:09.812Z,50.00
2024-05-09T01:54:09.517Z,50.33
2024-05-09T01:55:09.535Z,51.20
2024-05-09T01:56:09.638Z,50.13
2024-05-09T01:57:09.574Z,51.00
2024-05-09T01:58:09.925Z,51.26
2024-05-09T01:59:09.699Z,50.79
2024-05-09T02:00:10.463Z,50.24
2024-05-09T02:01:09.763Z,50.56
2024-05-09T02:02:09.969Z,51.74
2024-05-09T02:03:10.532Z,50.32
2024-05-09T02:04:10.137Z,51.12
2024-05-09T02:05:10.065Z,50.10
2024-05-09T02:06:10.118Z,50.97
2024-05-09T02:07:10.082Z,51.20
2024-05-09T02:08:10.242Z,50.43
2024-05-09T02:09:10.229Z,50.69
2024-05-09T02:10:16.502Z,50.86
2024-05-09T02:11:11.446Z,50.99
2024-05-09T02:12:10.524Z,51.19
2024-05-09T02:13:10.325Z,51.45
2024-05-09T02:14:10.421Z,51.38
2024-05-09T02:15:10.314Z,51.73
2024-05-09T02:16:10.330Z,50.87
2024-05-09T02:17:10.346Z,50.00
2024-05-09T02:18:11.009Z,50.69
2024-05-09T02:19:10.596Z,51.18
2024-05-09T02:20:16.127Z,50.88
2024-05-09T02:21:11.357Z,51.02
2024-05-09T02:22:10.339Z,51.32
2024-05-09T02:23:10.417Z,51.59
2024-05-09T02:24:10.308Z,51.56
2024-05-09T02:25:10.344Z,52.27
2024-05-09T02:26:10.376Z,51.63
2024-05-09T02:27:10.367Z,51.02
2024-05-09T02:28:10.336Z,50.85
2024-05-09T02:29:10.466Z,51.14
2024-05-09T02:30:18.725Z,50.45
2024-05-09T02:31:11.352Z,50.61
2024-05-09T02:32:10.432Z,50.72
2024-05-09T02:33:12.307Z,50.88
2024-05-09T02:34:10.537Z,50.60
2024-05-09T02:35:10.374Z,50.77
2024-05-09T02:36:10.356Z,51.01
2024-05-09T02:37:10.357Z,50.88
2024-05-09T02:38:10.823Z,50.07
2024-05-09T02:39:10.390Z,50.10
2024-05-09T02:40:14.701Z,50.44
2024-05-09T02:41:11.505Z,50.65
2024-05-09T02:42:10.358Z,50.99
2024-05-09T02:43:11.487Z,51.17
2024-05-09T02:44:10.448Z,50.91
2024-05-09T02:45:10.373Z,51.12
2024-05-09T02:46:10.378Z,50.78
2024-05-09T02:47:10.419Z,50.26
2024-05-09T02:48:10.519Z,50.28
2024-05-09T02:49:10.447Z,50.00
2024-05-09T02:50:13.328Z,50.65
2024-05-09T02:51:11.671Z,50.79
2024-05-09T02:52:10.393Z,51.09
2024-05-09T02:53:10.465Z,51.01
2024-05-09T02:54:10.387Z,51.53
2024-05-09T02:55:10.397Z,50.84
2024-05-09T02:56:10.417Z,50.46
2024-05-09T02:57:10.405Z,50.79
2024-05-09T02:58:10.785Z,50.47
2024-05-09T02:59:10.466Z,50.61
2024-05-09T03:00:18.321Z,50.18
2024-05-09T03:01:11.416Z,50.35
2024-05-09T03:02:10.525Z,50.58
2024-05-09T03:03:12.735Z,50.73
2024-05-09T03:04:10.569Z,50.32
2024-05-09T03:05:10.449Z,50.50
2024-05-09T03:06:10.414Z,50.78
2024-05-09T03:07:10.537Z,50.66
2024-05-09T03:08:10.571Z,51.09
2024-05-09T03:09:10.445Z,51.03
2024-05-09T03:10:18.295Z,50.70
2024-05-09T03:11:11.564Z,50.86
2024-05-09T03:12:10.526Z,51.07
2024-05-09T03:13:10.422Z,51.48
2024-05-09T03:14:10.457Z,51.52
2024-05-09T03:15:10.414Z,50.64
2024-05-09T03:16:10.432Z,50.64
2024-05-09T03:17:10.610Z,50.53
2024-05-09T03:18:10.685Z,50.83
2024-05-09T03:19:10.806Z,50.45
2024-05-09T03:20:17.533Z,51.15
2024-05-09T03:21:11.587Z,51.26
2024-05-09T03:22:10.438Z,51.38
2024-05-09T03:23:10.647Z,51.29
2024-05-09T03:24:10.435Z,51.10
2024-05-09T03:25:10.446Z,50.23
2024-05-09T03:26:10.510Z,50.39
2024-05-09T03:27:10.467Z,50.60
2024-05-09T03:28:10.503Z,50.26
2024-05-09T03:29:10.735Z,50.80
2024-05-09T03:30:15.425Z,51.23
2024-05-09T03:31:11.466Z,51.34
2024-05-09T03:32:10.590Z,51.49
2024-05-09T03:33:10.771Z,51.67
2024-05-09T03:34:10.541Z,51.52
2024-05-09T03:35:10.658Z,51.20
2024-05-09T03:36:11.431Z,50.47
2024-05-09T03:37:10.494Z,50.14
2024-05-09T03:38:10.645Z,50.58
2024-05-09T03:39:10.520Z,50.95
2024-05-09T03:40:17.552Z,50.58
2024-05-09T03:41:11.548Z,50.69
2024-05-09T03:42:10.518Z,50.88
2024-05-09T03:43:10.551Z,50.81
2024-05-09T03:44:10.536Z,50.78
2024-05-09T03:45:10.547Z,50.56
2024-05-09T03:46:10.539Z,50.05
2024-05-09T03:47:10.571Z,50.45
2024-05-09T03:48:10.769Z,50.51
2024-05-09T03:49:10.737Z,50.51
2024-05-09T03:50:18.178Z,50.86
2024-05-09T03:51:11.599Z,50.98
2024-05-09T03:52:10.562Z,51.21
2024-05-09T03:53:10.665Z,51.33
2024-05-09T03:54:10.569Z,51.20
2024-05-09T03:55:10.573Z,51.66
2024-05-09T03:56:10.647Z,51.45
2024-05-09T03:57:10.608Z,50.40
2024-05-09T03:58:10.572Z,50.68
2024-05-09T03:59:10.790Z,50.67
2024-05-09T04:00:17.819Z,50.50
2024-05-09T04:01:11.671Z,50.64
2024-05-09T04:02:10.683Z,50.75
2024-05-09T04:03:12.516Z,50.97
2024-05-09T04:04:10.596Z,51.87
2024-05-09T04:05:10.603Z,52.19
2024-05-09T04:06:10.634Z,51.48
2024-05-09T04:07:10.621Z,50.65
2024-05-09T04:08:11.333Z,50.41
2024-05-09T04:09:10.646Z,52.08
2024-05-09T04:10:20.600Z,50.93
2024-05-09T04:11:11.727Z,52.22
2024-05-09T04:12:10.840Z,52.38
2024-05-09T04:13:10.649Z,52.36
2024-05-09T04:14:10.673Z,51.45
2024-05-09T04:15:13.393Z,51.03
2024-05-09T04:16:10.632Z,51.52
2024-05-09T04:17:10.668Z,51.37
2024-05-09T04:18:10.800Z,50.36
2024-05-09T04:19:10.753Z,50.44
2024-05-09T04:20:15.179Z,51.30
2024-05-09T04:21:11.701Z,51.49
2024-05-09T04:22:10.632Z,51.75
2024-05-09T04:23:10.764Z,52.02
2024-05-09T04:24:10.692Z,51.70
2024-05-09T04:25:10.670Z,51.69
2024-05-09T04:26:10.725Z,50.52
2024-05-09T04:27:10.675Z,50.00
2024-05-09T04:28:10.707Z,50.62
2024-05-09T04:29:10.681Z,51.30
2024-05-09T04:30:18.544Z,50.65
2024-05-09T04:31:11.698Z,50.77
2024-05-09T04:32:10.771Z,50.91
2024-05-09T04:33:12.764Z,50.99
2024-05-09T04:34:10.811Z,52.48
2024-05-09T04:35:10.695Z,52.16
2024-05-09T04:36:10.692Z,51.67
2024-05-09T04:37:10.697Z,51.72
2024-05-09T04:38:10.759Z,50.57
2024-05-09T04:39:10.682Z,50.20
2024-05-09T04:40:20.523Z,50.77
2024-05-09T04:41:11.750Z,50.97
2024-05-09T04:42:10.704Z,51.31
2024-05-09T04:43:10.690Z,51.49
2024-05-09T04:44:10.759Z,51.37
2024-05-09T04:45:10.706Z,51.32
2024-05-09T04:46:10.691Z,51.32
2024-05-09T04:47:18.570Z,50.00
2024-05-09T04:48:18.587Z,50.00
2024-05-09T04:49:18.539Z,50.00
2024-05-09T04:50:29.012Z,50.00
2024-05-09T04:51:19.365Z,50.00
2024-05-09T04:52:18.409Z,50.00
2024-05-09T04:53:18.497Z,50.00
2024-05-09T04:55:18.388Z,50.00
2024-05-09T04:56:18.460Z,50.00
2024-05-09T04:57:18.410Z,50.00
2024-05-09T04:58:18.380Z,50.89
2024-05-09T04:59:18.432Z,50.00
2024-05-09T05:00:28.560Z,50.00
2024-05-09T05:03:09.938Z,50.00
2024-05-09T05:04:08.569Z,50.00
2024-05-09T05:05:08.523Z,50.00
2024-05-09T05:06:08.483Z,50.00
2024-05-09T05:07:08.472Z,50.00
2024-05-09T05:08:08.485Z,50.00
2024-05-09T05:09:08.476Z,50.12
2024-05-09T05:10:11.866Z,50.07
2024-05-09T05:11:09.575Z,50.24
2024-05-09T05:12:08.612Z,49.80
2024-05-09T05:13:08.474Z,45.90
2024-05-09T05:14:08.529Z,42.98
2024-05-09T05:15:08.510Z,40.85
2024-05-09T05:16:08.499Z,50.59
2024-05-09T05:17:08.535Z,50.00
2024-05-09T05:18:08.603Z,50.00
2024-05-09T05:19:11.450Z,50.00
2024-05-09T05:20:10.425Z,50.06
2024-05-09T05:21:08.569Z,50.17
2024-05-09T05:22:08.513Z,50.21
2024-05-09T05:23:08.580Z,49.04
2024-05-09T05:24:08.523Z,48.69
2024-05-09T05:25:08.540Z,46.98
2024-05-09T05:26:08.613Z,50.00
2024-05-09T05:27:08.532Z,50.65
2024-05-09T05:28:08.513Z,50.28
2024-05-09T05:29:08.578Z,51.24
2024-05-09T05:30:14.592Z,50.83
2024-05-09T05:31:09.570Z,51.00
2024-05-09T05:32:08.591Z,51.26
2024-05-09T05:33:08.637Z,51.04
2024-05-09T05:34:08.640Z,49.78
2024-05-09T05:35:08.560Z,49.19
2024-05-09T05:36:08.527Z,50.57
2024-05-09T05:37:08.535Z,51.33
2024-05-09T05:38:08.706Z,50.00
2024-05-09T05:39:08.542Z,50.37
2024-05-09T05:40:11.900Z,51.72
2024-05-09T05:41:09.671Z,51.81
2024-05-09T05:42:08.568Z,51.79
2024-05-09T05:43:08.766Z,50.58
2024-05-09T05:44:09.180Z,50.40
2024-05-09T05:46:37.663Z,50.00
2024-05-09T05:47:37.788Z,50.00
2024-05-09T05:48:37.743Z,50.00
2024-05-09T05:49:38.012Z,50.00
2024-05-09T05:50:38.665Z,50.00
2024-05-09T05:51:37.711Z,50.04
2024-05-09T05:52:37.701Z,51.17
2024-05-09T05:53:37.809Z,50.17
2024-05-09T05:54:37.710Z,50.67
2024-05-09T05:55:37.749Z,50.44
2024-05-09T05:56:37.756Z,50.19
2024-05-09T05:57:37.691Z,50.21
2024-05-09T05:58:37.707Z,50.00
2024-05-09T05:59:37.803Z,50.60
2024-05-09T06:00:39.789Z,50.56
2024-05-09T06:01:37.738Z,52.14
2024-05-09T06:02:37.850Z,50.81
2024-05-09T06:03:37.835Z,50.00
2024-05-09T06:04:37.800Z,51.05
2024-05-09T06:05:37.784Z,50.72
2024-05-09T06:06:37.760Z,51.32
2024-05-09T06:07:37.745Z,50.08
2024-05-09T06:08:37.840Z,51.75
2024-05-09T06:09:37.726Z,51.09
2024-05-09T06:10:40.112Z,51.06
2024-05-09T06:11:37.851Z,51.20
2024-05-09T06:12:37.755Z,51.40
2024-05-09T06:13:37.751Z,50.54
2024-05-09T06:14:37.764Z,51.32
2024-05-09T06:15:37.760Z,48.41
2024-05-09T06:16:37.783Z,52.06
2024-05-09T06:17:37.797Z,50.54
2024-05-09T06:18:37.997Z,50.99
2024-05-09T06:19:37.977Z,51.38
2024-05-09T06:20:38.515Z,52.14
2024-05-09T06:21:37.736Z,51.53
2024-05-09T06:22:37.750Z,51.30
2024-05-09T06:23:37.959Z,51.29
2024-05-09T06:24:37.716Z,50.00
2024-05-09T06:25:37.879Z,50.82
2024-05-09T06:26:37.799Z,51.96
2024-05-09T06:27:37.745Z,51.49
2024-05-09T06:28:37.750Z,52.34
2024-05-09T06:29:37.812Z,52.49
2024-05-09T06:30:40.420Z,51.56
2024-05-09T06:31:37.827Z,51.72
2024-05-09T06:32:38.002Z,52.09
2024-05-09T06:33:38.033Z,52.14
2024-05-09T06:34:37.961Z,51.97
2024-05-09T06:35:38.072Z,52.14
2024-05-09T06:36:37.859Z,50.76
2024-05-09T06:37:37.808Z,51.24
2024-05-09T06:38:38.047Z,52.06
2024-05-09T06:39:37.816Z,50.00
2024-05-09T06:40:39.905Z,51.14
2024-05-09T06:41:37.865Z,51.28
2024-05-09T06:42:37.845Z,51.65
2024-05-09T06:43:37.877Z,51.83
2024-05-09T06:44:37.873Z,51.37
2024-05-09T06:45:37.889Z,52.35
2024-05-09T06:46:37.873Z,53.35
2024-05-09T06:47:38.120Z,52.76
2024-05-09T06:48:37.944Z,53.32
2024-05-09T06:49:37.915Z,52.05
2024-05-09T06:50:39.391Z,51.89
2024-05-09T06:51:37.839Z,53.69
2024-05-09T06:52:37.869Z,53.78
2024-05-09T06:53:38.046Z,50.98
2024-05-09T06:54:37.841Z,52.40
2024-05-09T06:55:38.151Z,50.00
2024-05-09T06:56:37.905Z,52.45
2024-05-09T06:57:40.526Z,51.09
2024-05-09T06:58:37.917Z,51.26
2024-05-09T06:59:37.893Z,51.31
2024-05-09T07:00:40.429Z,52.07
2024-05-09T07:01:37.887Z,51.29
2024-05-09T07:02:38.102Z,51.55
2024-05-09T07:03:37.988Z,52.33
2024-05-09T07:04:38.119Z,52.68
2024-05-09T07:05:37.967Z,52.44
2024-05-09T07:06:37.933Z,52.61
2024-05-09T07:07:37.913Z,53.12
2024-05-09T07:08:38.044Z,53.02
2024-05-09T07:09:37.933Z,51.55
2024-05-09T07:10:38.295Z,50.00
2024-05-09T07:11:38.048Z,52.77
2024-05-09T07:12:37.922Z,52.10
2024-05-09T07:13:37.938Z,53.81
2024-05-09T07:14:38.576Z,50.68
2024-05-09T07:15:37.925Z,50.91
2024-05-09T07:16:37.945Z,51.30
2024-05-09T07:17:38.113Z,50.87
2024-05-09T07:18:38.187Z,52.54
2024-05-09T07:19:38.026Z,50.52
2024-05-09T07:20:38.031Z,51.95
2024-05-09T07:21:37.934Z,53.06
2024-05-09T07:22:37.945Z,52.22
2024-05-09T07:23:38.452Z,52.58
2024-05-09T07:24:37.940Z,54.11
2024-05-09T07:25:37.947Z,52.53
2024-05-09T07:26:38.135Z,54.91
2024-05-09T07:27:37.996Z,51.91
2024-05-09T07:28:38.011Z,53.27
2024-05-09T07:29:38.790Z,52.36
2024-05-09T07:30:38.039Z,52.51
2024-05-09T07:31:38.084Z,53.75
2024-05-09T07:32:38.380Z,52.04
2024-05-09T07:33:38.415Z,51.62
2024-05-09T07:34:38.498Z,53.00
2024-05-09T07:35:38.734Z,54.65
2024-05-09T07:36:38.591Z,53.61
2024-05-09T07:37:38.673Z,55.35
2024-05-09T07:38:38.876Z,53.01
2024-05-09T07:39:38.832Z,51.59
2024-05-09T07:40:38.928Z,51.33
2024-05-09T07:41:39.073Z,53.87
2024-05-09T07:42:39.111Z,55.12
2024-05-09T07:43:39.189Z,50.85
2024-05-09T07:44:39.297Z,50.82
2024-05-09T07:45:48.926Z,54.97
2024-05-09T07:47:47.698Z,55.04
2024-05-09T07:49:11.951Z,55.22
2024-05-09T07:53:44.654Z,55.49
2024-05-09T07:54:40.562Z,55.55
2024-05-09T07:55:39.535Z,57.19
2024-05-09T07:56:39.729Z,58.22
2024-05-09T07:57:39.499Z,60.34
2024-05-09T07:58:39.496Z,62.70
2024-05-09T07:59:39.430Z,60.11
2024-05-09T08:00:39.662Z,55.67
2024-05-09T08:01:39.575Z,54.90
2024-05-09T08:02:39.472Z,54.70
2024-05-09T08:03:39.598Z,52.70
2024-05-09T08:04:39.578Z,51.93
2024-05-09T08:05:39.490Z,52.29
2024-05-09T08:06:39.504Z,53.49
2024-05-09T08:07:39.480Z,51.47
2024-05-09T08:08:39.471Z,55.15
2024-05-09T08:09:39.470Z,52.93
2024-05-09T08:10:39.544Z,51.78
2024-05-09T08:11:39.452Z,51.74
2024-05-09T08:12:39.504Z,53.06
2024-05-09T08:13:39.493Z,52.09
2024-05-09T08:14:39.645Z,50.09
2024-05-09T08:15:39.775Z,51.22
2024-05-09T08:16:39.781Z,52.53
2024-05-09T08:17:39.941Z,50.35
2024-05-09T08:18:40.225Z,52.62
2024-05-09T08:19:40.182Z,52.68
2024-05-09T08:20:40.223Z,53.48
2024-05-09T08:21:40.348Z,52.07
2024-05-09T08:22:40.373Z,53.96
2024-05-09T08:23:40.431Z,54.30
2024-05-09T08:24:40.652Z,51.66
2024-05-09T08:25:40.671Z,54.40
2024-05-09T08:26:40.735Z,53.22
2024-05-09T08:27:40.881Z,52.76
2024-05-09T08:28:40.983Z,50.34
2024-05-09T08:29:41.102Z,50.84
2024-05-09T08:30:41.245Z,50.00
2024-05-09T08:31:41.329Z,53.94
2024-05-09T08:32:41.443Z,51.76
2024-05-09T08:33:41.607Z,51.71
2024-05-09T08:34:41.548Z,52.76
2024-05-09T08:35:41.606Z,51.49
2024-05-09T08:36:41.780Z,52.01
2024-05-09T08:37:42.052Z,52.85
2024-05-09T08:38:41.883Z,53.30
2024-05-09T08:39:41.995Z,52.93
2024-05-09T08:40:42.365Z,53.35
2024-05-09T08:41:42.165Z,55.00
2024-05-09T08:42:42.296Z,56.71
2024-05-09T08:43:42.404Z,53.01
2024-05-09T08:44:42.435Z,55.03
2024-05-09T08:45:43.856Z,55.11
2024-05-09T08:46:42.747Z,52.74
2024-05-09T08:47:42.845Z,53.83
2024-05-09T08:48:42.821Z,55.31
2024-05-09T08:49:42.797Z,53.03
2024-05-09T08:50:42.922Z,54.00
2024-05-09T08:51:42.883Z,54.63
2024-05-09T08:52:42.992Z,53.53
2024-05-09T08:53:42.965Z,55.71
2024-05-09T08:54:43.021Z,54.63
2024-05-09T08:55:44.202Z,53.58
2024-05-09T08:56:43.138Z,55.85
2024-05-09T08:57:43.172Z,53.32
2024-05-09T08:58:43.199Z,57.09
2024-05-09T08:59:43.206Z,57.34
2024-05-09T09:00:43.596Z,57.66
2024-05-09T09:01:43.479Z,56.09
2024-05-09T09:02:43.468Z,53.48
2024-05-09T09:03:43.908Z,55.38
2024-05-09T09:04:43.536Z,52.97
2024-05-09T09:05:43.591Z,51.83
2024-05-09T09:06:43.641Z,52.18
2024-05-09T09:07:43.604Z,51.95
2024-05-09T09:08:43.677Z,51.12
2024-05-09T09:09:43.754Z,50.48
2024-05-09T09:10:43.819Z,52.20
2024-05-09T09:11:43.851Z,51.40
2024-05-09T09:12:43.886Z,50.57
2024-05-09T09:13:43.913Z,51.24
2024-05-09T09:14:43.932Z,50.17
2024-05-09T09:15:44.076Z,52.83
2024-05-09T09:16:44.146Z,52.70
2024-05-09T09:17:44.242Z,52.32
2024-05-09T09:18:44.596Z,53.68
2024-05-09T09:19:44.455Z,52.53
2024-05-09T09:20:44.675Z,52.51
2024-05-09T09:21:44.627Z,53.14
2024-05-09T09:22:44.698Z,52.78
2024-05-09T09:23:44.828Z,53.08
2024-05-09T09:24:44.898Z,51.79
2024-05-09T09:25:45.017Z,52.83
2024-05-09T09:26:45.069Z,52.03
2024-05-09T09:27:45.256Z,53.15
2024-05-09T09:28:45.359Z,53.88
2024-05-09T09:29:45.406Z,54.42
2024-05-09T09:30:45.576Z,51.53
2024-05-09T09:31:45.582Z,54.27
2024-05-09T09:32:45.788Z,53.76
2024-05-09T09:33:46.068Z,52.29
2024-05-09T09:34:45.934Z,53.00
2024-05-09T09:35:45.959Z,54.45
2024-05-09T09:36:46.120Z,53.15
2024-05-09T09:37:46.159Z,53.12
2024-05-09T09:38:46.280Z,54.26
2024-05-09T09:39:49.105Z,51.34
2024-05-09T09:40:49.418Z,53.50
2024-05-09T09:41:46.377Z,53.72
2024-05-09T09:42:46.402Z,54.13
2024-05-09T09:43:46.382Z,54.29
2024-05-09T09:44:54.578Z,56.60
2024-05-09T09:45:47.398Z,53.80
2024-05-09T09:46:46.374Z,54.27
2024-05-09T09:47:46.542Z,54.36
2024-05-09T09:48:46.471Z,55.88
2024-05-09T09:49:46.427Z,53.34
2024-05-09T09:50:46.363Z,54.21
2024-05-09T09:51:46.430Z,52.68
2024-05-09T09:52:46.377Z,50.96
2024-05-09T09:53:46.389Z,53.51
2024-05-09T09:54:46.384Z,51.69
2024-05-09T09:55:46.566Z,53.08
2024-05-09T09:56:46.558Z,54.35
2024-05-09T09:57:46.794Z,51.12
2024-05-09T09:58:46.791Z,54.97
2024-05-09T09:59:46.891Z,53.06
2024-05-09T10:00:47.100Z,53.19
2024-05-09T10:01:47.154Z,53.60
2024-05-09T10:02:47.210Z,52.60
2024-05-09T10:03:47.479Z,53.51
2024-05-09T10:04:47.459Z,50.15
2024-05-09T10:05:47.819Z,53.29
2024-05-09T10:06:47.511Z,53.10
2024-05-09T10:07:47.587Z,52.64
2024-05-09T10:08:47.575Z,54.45
2024-05-09T10:09:47.626Z,53.93
2024-05-09T10:10:48.158Z,52.39
2024-05-09T10:11:51.869Z,52.25
2024-05-09T10:12:47.690Z,52.42
2024-05-09T10:13:47.705Z,52.51
2024-05-09T10:14:47.718Z,53.02
2024-05-09T10:15:47.746Z,52.95
2024-05-09T10:16:47.664Z,55.15
2024-05-09T10:17:47.751Z,52.64
2024-05-09T10:18:47.780Z,52.03
2024-05-09T10:19:47.704Z,54.40
2024-05-09T10:20:47.760Z,52.45
2024-05-09T10:21:47.811Z,53.70
2024-05-09T10:22:47.777Z,54.02
2024-05-09T10:23:47.761Z,51.51
2024-05-09T10:24:47.779Z,51.67
2024-05-09T10:25:47.746Z,52.69
2024-05-09T10:26:47.723Z,51.85
2024-05-09T10:27:47.755Z,51.02
2024-05-09T10:28:47.750Z,51.79
2024-05-09T10:29:47.765Z,51.18
2024-05-09T10:30:48.983Z,51.55
2024-05-09T10:31:48.102Z,51.75
2024-05-09T10:32:48.059Z,51.91
2024-05-09T10:33:48.563Z,51.46
2024-05-09T10:34:48.491Z,52.05
2024-05-09T10:35:48.095Z,54.32
2024-05-09T10:36:48.211Z,53.57
2024-05-09T10:37:48.216Z,52.02
2024-05-09T10:38:48.299Z,52.37
2024-05-09T10:39:48.366Z,50.00
2024-05-09T10:40:48.364Z,52.77
2024-05-09T10:41:48.348Z,54.48
2024-05-09T10:42:48.535Z,52.60
2024-05-09T10:43:48.522Z,51.28
2024-05-09T10:44:48.668Z,53.95
2024-05-09T10:45:48.809Z,56.20
2024-05-09T10:46:48.785Z,54.58
2024-05-09T10:47:48.953Z,53.34
2024-05-09T10:48:49.415Z,54.35
2024-05-09T10:49:49.255Z,55.67
2024-05-09T10:50:49.185Z,54.57
2024-05-09T10:51:49.290Z,53.88
2024-05-09T10:52:49.413Z,53.29
2024-05-09T10:53:49.513Z,51.79
2024-05-09T10:54:49.998Z,53.27
2024-05-09T10:55:49.669Z,52.89
2024-05-09T10:56:49.780Z,52.97
2024-05-09T10:57:49.933Z,55.13
2024-05-09T10:58:49.966Z,53.75
2024-05-09T10:59:50.062Z,50.00
2024-05-09T11:00:50.271Z,52.94
2024-05-09T11:01:50.314Z,50.99
2024-05-09T11:02:50.498Z,52.42
2024-05-09T11:03:50.708Z,51.64
2024-05-09T11:04:50.776Z,51.46
2024-05-09T11:05:50.721Z,51.18
2024-05-09T11:06:50.722Z,52.08
2024-05-09T11:07:50.783Z,50.05
2024-05-09T11:08:50.899Z,52.54
2024-05-09T11:09:51.092Z,50.91
2024-05-09T11:10:51.113Z,51.78
2024-05-09T11:11:51.207Z,54.23
2024-05-09T11:12:51.290Z,50.85
2024-05-09T11:13:51.398Z,52.08
2024-05-09T11:14:51.543Z,50.00
2024-05-09T11:15:51.560Z,51.51
2024-05-09T11:16:51.611Z,54.57
2024-05-09T11:17:51.817Z,53.27
2024-05-09T11:18:51.970Z,52.19
2024-05-09T11:19:52.037Z,51.59
2024-05-09T11:20:52.069Z,51.16
2024-05-09T11:21:52.136Z,51.80
2024-05-09T11:22:52.217Z,55.27
2024-05-09T11:23:52.365Z,52.66
2024-05-09T11:24:52.467Z,53.03
2024-05-09T11:25:52.506Z,52.74
2024-05-09T11:26:52.616Z,51.49
2024-05-09T11:27:52.800Z,52.71
2024-05-09T11:28:52.831Z,54.62
2024-05-09T11:29:52.873Z,53.03
2024-05-09T11:30:53.004Z,53.56
2024-05-09T11:31:53.228Z,53.98
2024-05-09T11:32:53.380Z,54.04
2024-05-09T11:33:53.378Z,51.26
2024-05-09T11:34:53.379Z,53.97
2024-05-09T11:35:53.510Z,52.53
2024-05-09T11:36:53.784Z,55.03
2024-05-09T11:37:53.659Z,55.04
2024-05-09T11:38:53.724Z,54.48
2024-05-09T11:39:53.932Z,51.81
2024-05-09T11:40:54.025Z,54.61
2024-05-09T11:41:54.049Z,52.12
2024-05-09T11:42:54.127Z,52.11
2024-05-09T11:43:54.254Z,51.61
2024-05-09T11:44:54.294Z,53.92
2024-05-09T11:45:54.426Z,53.52
2024-05-09T11:46:54.502Z,54.86
2024-05-09T11:47:54.682Z,54.91
2024-05-09T11:48:54.861Z,54.06
2024-05-09T11:49:54.922Z,51.93
2024-05-09T11:50:55.057Z,52.13
2024-05-09T11:51:54.986Z,52.08
2024-05-09T11:52:55.053Z,53.93
2024-05-09T11:53:55.219Z,55.58
2024-05-09T11:54:55.322Z,52.40
2024-05-09T11:55:55.308Z,52.61
2024-05-09T11:56:55.449Z,50.83
2024-05-09T11:57:55.675Z,51.47
2024-05-09T11:58:55.642Z,52.69
2024-05-09T11:59:55.688Z,50.61
2024-05-09T12:00:55.901Z,51.34
2024-05-09T12:01:56.040Z,50.05
2024-05-09T12:02:56.112Z,52.68
2024-05-09T12:03:56.266Z,51.96
2024-05-09T12:04:56.265Z,52.88
2024-05-09T12:05:56.421Z,51.20
2024-05-09T12:06:56.432Z,52.80
2024-05-09T12:07:56.528Z,51.73
2024-05-09T12:08:56.589Z,53.50
2024-05-09T12:09:56.752Z,53.33
2024-05-09T12:10:57.284Z,54.43
2024-05-09T12:11:56.934Z,51.59
2024-05-09T12:12:56.979Z,52.70
2024-05-09T12:13:57.073Z,52.57
2024-05-09T12:14:57.174Z,52.00
2024-05-09T12:15:57.318Z,53.51
2024-05-09T12:16:57.424Z,50.00
2024-05-09T12:18:00.013Z,53.81
2024-05-09T12:18:57.614Z,53.95
2024-05-09T12:19:57.500Z,53.87
2024-05-09T12:20:57.515Z,53.55
2024-05-09T12:21:57.527Z,52.29
2024-05-09T12:22:57.543Z,54.73
2024-05-09T12:23:57.545Z,53.01
2024-05-09T12:24:57.569Z,53.72
2024-05-09T12:25:57.548Z,52.38
2024-05-09T12:26:57.550Z,51.03
2024-05-09T12:27:57.588Z,53.68
2024-05-09T12:28:57.555Z,52.64
2024-05-09T12:29:57.571Z,53.38
2024-05-09T12:30:57.554Z,51.04
2024-05-09T12:31:57.556Z,52.75
2024-05-09T12:32:57.712Z,51.95
2024-05-09T12:33:57.703Z,51.80
2024-05-09T12:34:57.552Z,53.79
2024-05-09T12:35:57.566Z,50.54
2024-05-09T12:36:57.639Z,50.59
2024-05-09T12:37:57.556Z,50.61
2024-05-09T12:38:57.552Z,50.02
2024-05-09T12:39:57.607Z,53.34
2024-05-09T12:40:57.779Z,50.65
2024-05-09T12:41:57.576Z,53.91
2024-05-09T12:42:57.591Z,51.76
2024-05-09T12:43:57.562Z,52.94
2024-05-09T12:44:57.574Z,54.10
2024-05-09T12:45:57.801Z,52.91
2024-05-09T12:46:57.748Z,51.34
2024-05-09T12:47:58.034Z,53.15
2024-05-09T12:48:58.182Z,51.13
2024-05-09T12:49:58.083Z,51.65
2024-05-09T12:50:58.213Z,50.60
2024-05-09T12:51:58.279Z,51.65
2024-05-09T12:52:58.328Z,50.59
2024-05-09T12:53:58.429Z,52.72
2024-05-09T12:54:58.527Z,52.14
2024-05-09T12:56:33.230Z,50.00
2024-05-09T12:57:33.254Z,50.00
2024-05-09T12:58:33.211Z,50.00
2024-05-09T12:59:33.221Z,50.00
2024-05-09T13:00:34.365Z,50.00
2024-05-09T13:01:33.525Z,50.87
2024-05-09T13:02:33.369Z,52.53